sensor_id;sensor_type;location;lat;lon;timestamp;P1;durP1;ratioP1;P2;durP2;ratioP2
16775;SDS011;8505;49.456;8.164;2023-06-19T00:00:13;9.60;;;7.90;;
16775;SDS011;8505;49.456;8.164;2023-06-19T00:02:42;9.10;;;8.20;;
16775;SDS011;8505;49.456;8.164;2023-06-19T00:05:11;10.30;;;8.53;;
16775;SDS011;8505;49.456;8.164;2023-06-19T00:07:40;9.25;;;8.20;;
16775;SDS011;8505;49.456;8.164;2023-06-19T00:10:08;10.73;;;8.30;;
16775;SDS011;8505;49.456;8.164;2023-06-19T00:12:36;9.43;;;8.27;;
16775;SDS011;8505;49.456;8.164;2023-06-19T00:15:06;9.30;;;8.30;;
16775;SDS011;8505;49.456;8.164;2023-06-19T00:17:35;10.27;;;8.13;;
16775;SDS011;8505;49.456;8.164;2023-06-19T00:20:04;9.00;;;8.00;;
16775;SDS011;8505;49.456;8.164;2023-06-19T00:22:34;9.10;;;8.00;;
16775;SDS011;8505;49.456;8.164;2023-06-19T00:25:01;11.73;;;8.45;;
16775;SDS011;8505;49.456;8.164;2023-06-19T00:27:29;10.25;;;8.40;;
16775;SDS011;8505;49.456;8.164;2023-06-19T00:29:57;9.88;;;8.48;;
16775;SDS011;8505;49.456;8.164;2023-06-19T00:32:30;9.85;;;8.52;;
16775;SDS011;8505;49.456;8.164;2023-06-19T00:34:57;9.57;;;8.57;;
16775;SDS011;8505;49.456;8.164;2023-06-19T00:37:27;10.05;;;8.48;;
16775;SDS011;8505;49.456;8.164;2023-06-19T00:39:58;9.00;;;8.05;;
16775;SDS011;8505;49.456;8.164;2023-06-19T00:42:26;10.77;;;8.32;;
16775;SDS011;8505;49.456;8.164;2023-06-19T00:44:53;9.52;;;8.20;;
16775;SDS011;8505;49.456;8.164;2023-06-19T00:47:21;9.98;;;8.57;;
16775;SDS011;8505;49.456;8.164;2023-06-19T00:49:50;9.63;;;8.30;;
16775;SDS011;8505;49.456;8.164;2023-06-19T00:52:18;10.23;;;8.45;;
16775;SDS011;8505;49.456;8.164;2023-06-19T00:54:46;10.13;;;8.70;;
16775;SDS011;8505;49.456;8.164;2023-06-19T00:57:14;9.45;;;8.40;;
16775;SDS011;8505;49.456;8.164;2023-06-19T00:59:42;11.00;;;8.40;;
16775;SDS011;8505;49.456;8.164;2023-06-19T01:02:09;9.20;;;8.30;;
16775;SDS011;8505;49.456;8.164;2023-06-19T01:04:38;9.20;;;8.18;;
16775;SDS011;8505;49.456;8.164;2023-06-19T01:07:09;8.93;;;7.90;;
16775;SDS011;8505;49.456;8.164;2023-06-19T01:09:43;8.98;;;8.02;;
16775;SDS011;8505;49.456;8.164;2023-06-19T01:12:15;10.80;;;7.78;;
16775;SDS011;8505;49.456;8.164;2023-06-19T01:14:52;8.55;;;7.35;;
16775;SDS011;8505;49.456;8.164;2023-06-19T01:17:22;10.88;;;6.72;;
16775;SDS011;8505;49.456;8.164;2023-06-19T01:19:51;8.52;;;6.63;;
16775;SDS011;8505;49.456;8.164;2023-06-19T01:22:25;10.70;;;6.55;;
16775;SDS011;8505;49.456;8.164;2023-06-19T01:24:53;7.80;;;6.37;;
16775;SDS011;8505;49.456;8.164;2023-06-19T01:27:22;10.93;;;5.75;;
16775;SDS011;8505;49.456;8.164;2023-06-19T01:29:56;8.55;;;5.60;;
16775;SDS011;8505;49.456;8.164;2023-06-19T01:32:25;7.18;;;5.20;;
16775;SDS011;8505;49.456;8.164;2023-06-19T01:35:00;7.68;;;5.00;;
16775;SDS011;8505;49.456;8.164;2023-06-19T01:37:31;7.75;;;5.00;;
16775;SDS011;8505;49.456;8.164;2023-06-19T01:40:01;7.10;;;4.70;;
16775;SDS011;8505;49.456;8.164;2023-06-19T01:42:32;6.40;;;4.60;;
16775;SDS011;8505;49.456;8.164;2023-06-19T01:45:01;6.82;;;4.50;;
16775;SDS011;8505;49.456;8.164;2023-06-19T01:47:30;6.03;;;4.47;;
16775;SDS011;8505;49.456;8.164;2023-06-19T01:49:58;6.40;;;4.10;;
16775;SDS011;8505;49.456;8.164;2023-06-19T01:52:26;6.68;;;4.68;;
16775;SDS011;8505;49.456;8.164;2023-06-19T01:54:55;5.00;;;4.50;;
16775;SDS011;8505;49.456;8.164;2023-06-19T01:57:23;5.75;;;4.30;;
16775;SDS011;8505;49.456;8.164;2023-06-19T01:59:51;4.93;;;4.28;;
16775;SDS011;8505;49.456;8.164;2023-06-19T02:02:19;6.22;;;4.10;;
16775;SDS011;8505;49.456;8.164;2023-06-19T02:04:46;6.90;;;4.43;;
16775;SDS011;8505;49.456;8.164;2023-06-19T02:07:14;4.85;;;4.30;;
16775;SDS011;8505;49.456;8.164;2023-06-19T02:09:42;6.15;;;4.75;;
16775;SDS011;8505;49.456;8.164;2023-06-19T02:12:11;5.40;;;4.30;;
16775;SDS011;8505;49.456;8.164;2023-06-19T02:14:39;5.60;;;4.13;;
16775;SDS011;8505;49.456;8.164;2023-06-19T02:17:07;5.97;;;4.32;;
16775;SDS011;8505;49.456;8.164;2023-06-19T02:19:35;5.03;;;3.67;;
16775;SDS011;8505;49.456;8.164;2023-06-19T02:22:03;4.97;;;4.10;;
16775;SDS011;8505;49.456;8.164;2023-06-19T02:24:31;5.00;;;4.00;;
16775;SDS011;8505;49.456;8.164;2023-06-19T02:26:59;4.88;;;3.85;;
16775;SDS011;8505;49.456;8.164;2023-06-19T02:29:29;5.20;;;4.00;;
16775;SDS011;8505;49.456;8.164;2023-06-19T02:32:00;5.15;;;4.03;;
16775;SDS011;8505;49.456;8.164;2023-06-19T02:34:28;4.75;;;3.80;;
16775;SDS011;8505;49.456;8.164;2023-06-19T02:36:55;4.90;;;3.90;;
16775;SDS011;8505;49.456;8.164;2023-06-19T02:39:23;4.63;;;4.00;;
16775;SDS011;8505;49.456;8.164;2023-06-19T02:41:51;5.55;;;4.07;;
16775;SDS011;8505;49.456;8.164;2023-06-19T02:44:19;5.65;;;4.38;;
16775;SDS011;8505;49.456;8.164;2023-06-19T02:46:48;5.50;;;4.28;;
16775;SDS011;8505;49.456;8.164;2023-06-19T02:49:15;6.85;;;4.50;;
16775;SDS011;8505;49.456;8.164;2023-06-19T02:51:43;4.97;;;4.20;;
16775;SDS011;8505;49.456;8.164;2023-06-19T02:54:11;7.28;;;4.40;;
16775;SDS011;8505;49.456;8.164;2023-06-19T02:56:39;6.03;;;4.50;;
16775;SDS011;8505;49.456;8.164;2023-06-19T02:59:06;6.13;;;4.43;;
16775;SDS011;8505;49.456;8.164;2023-06-19T03:01:34;6.70;;;4.60;;
16775;SDS011;8505;49.456;8.164;2023-06-19T03:04:03;6.93;;;4.85;;
16775;SDS011;8505;49.456;8.164;2023-06-19T03:06:31;6.55;;;5.18;;
16775;SDS011;8505;49.456;8.164;2023-06-19T03:08:59;6.53;;;5.10;;
16775;SDS011;8505;49.456;8.164;2023-06-19T03:11:27;7.45;;;5.20;;
16775;SDS011;8505;49.456;8.164;2023-06-19T03:13:55;7.00;;;5.40;;
16775;SDS011;8505;49.456;8.164;2023-06-19T03:16:23;7.72;;;4.78;;
16775;SDS011;8505;49.456;8.164;2023-06-19T03:18:52;6.07;;;4.72;;
16775;SDS011;8505;49.456;8.164;2023-06-19T03:21:21;5.25;;;4.10;;
16775;SDS011;8505;49.456;8.164;2023-06-19T03:23:48;5.95;;;4.00;;
16775;SDS011;8505;49.456;8.164;2023-06-19T03:26:17;4.65;;;3.83;;
16775;SDS011;8505;49.456;8.164;2023-06-19T03:28:45;4.35;;;3.58;;
16775;SDS011;8505;49.456;8.164;2023-06-19T03:31:14;4.13;;;3.17;;
16775;SDS011;8505;49.456;8.164;2023-06-19T03:33:42;4.45;;;3.40;;
16775;SDS011;8505;49.456;8.164;2023-06-19T03:36:10;4.03;;;3.13;;
16775;SDS011;8505;49.456;8.164;2023-06-19T03:38:39;3.20;;;2.73;;
16775;SDS011;8505;49.456;8.164;2023-06-19T03:41:07;3.78;;;2.70;;
16775;SDS011;8505;49.456;8.164;2023-06-19T03:43:35;3.45;;;3.00;;
16775;SDS011;8505;49.456;8.164;2023-06-19T03:46:03;4.95;;;2.80;;
16775;SDS011;8505;49.456;8.164;2023-06-19T03:48:30;4.57;;;3.00;;
16775;SDS011;8505;49.456;8.164;2023-06-19T03:50:58;5.32;;;3.00;;
16775;SDS011;8505;49.456;8.164;2023-06-19T03:53:27;3.70;;;3.20;;
16775;SDS011;8505;49.456;8.164;2023-06-19T03:55:56;5.25;;;3.15;;
16775;SDS011;8505;49.456;8.164;2023-06-19T03:58:24;4.70;;;3.10;;
16775;SDS011;8505;49.456;8.164;2023-06-19T04:00:51;6.53;;;3.47;;
16775;SDS011;8505;49.456;8.164;2023-06-19T04:03:19;4.18;;;3.05;;
16775;SDS011;8505;49.456;8.164;2023-06-19T04:05:47;3.73;;;2.93;;
16775;SDS011;8505;49.456;8.164;2023-06-19T04:08:15;4.72;;;3.42;;
16775;SDS011;8505;49.456;8.164;2023-06-19T04:10:43;4.45;;;3.30;;
16775;SDS011;8505;49.456;8.164;2023-06-19T04:13:12;4.05;;;3.30;;
16775;SDS011;8505;49.456;8.164;2023-06-19T04:15:40;4.93;;;3.40;;
16775;SDS011;8505;49.456;8.164;2023-06-19T04:18:12;4.40;;;3.20;;
16775;SDS011;8505;49.456;8.164;2023-06-19T04:20:40;4.65;;;3.58;;
16775;SDS011;8505;49.456;8.164;2023-06-19T04:23:08;4.68;;;3.30;;
16775;SDS011;8505;49.456;8.164;2023-06-19T04:25:36;5.07;;;3.50;;
16775;SDS011;8505;49.456;8.164;2023-06-19T04:28:04;5.60;;;3.50;;
16775;SDS011;8505;49.456;8.164;2023-06-19T04:30:33;3.65;;;3.30;;
16775;SDS011;8505;49.456;8.164;2023-06-19T04:33:01;4.90;;;3.50;;
16775;SDS011;8505;49.456;8.164;2023-06-19T04:35:30;4.45;;;3.25;;
16775;SDS011;8505;49.456;8.164;2023-06-19T04:37:57;5.38;;;3.40;;
16775;SDS011;8505;49.456;8.164;2023-06-19T04:40:27;4.70;;;3.42;;
16775;SDS011;8505;49.456;8.164;2023-06-19T04:42:56;4.57;;;3.10;;
16775;SDS011;8505;49.456;8.164;2023-06-19T04:45:23;4.57;;;3.15;;
16775;SDS011;8505;49.456;8.164;2023-06-19T04:47:53;4.78;;;3.08;;
16775;SDS011;8505;49.456;8.164;2023-06-19T04:50:20;4.00;;;2.95;;
16775;SDS011;8505;49.456;8.164;2023-06-19T04:52:49;4.55;;;3.00;;
16775;SDS011;8505;49.456;8.164;2023-06-19T04:55:18;5.30;;;3.38;;
16775;SDS011;8505;49.456;8.164;2023-06-19T04:57:46;5.13;;;3.22;;
16775;SDS011;8505;49.456;8.164;2023-06-19T05:00:14;5.57;;;3.10;;
16775;SDS011;8505;49.456;8.164;2023-06-19T05:02:45;4.70;;;3.37;;
16775;SDS011;8505;49.456;8.164;2023-06-19T05:05:15;6.00;;;3.33;;
16775;SDS011;8505;49.456;8.164;2023-06-19T05:07:45;4.43;;;3.47;;
16775;SDS011;8505;49.456;8.164;2023-06-19T05:10:13;4.88;;;3.40;;
16775;SDS011;8505;49.456;8.164;2023-06-19T05:12:40;4.93;;;3.42;;
16775;SDS011;8505;49.456;8.164;2023-06-19T05:15:08;5.10;;;3.70;;
16775;SDS011;8505;49.456;8.164;2023-06-19T05:17:37;5.35;;;3.60;;
16775;SDS011;8505;49.456;8.164;2023-06-19T05:20:06;4.45;;;3.88;;
16775;SDS011;8505;49.456;8.164;2023-06-19T05:22:35;5.35;;;3.95;;
16775;SDS011;8505;49.456;8.164;2023-06-19T05:25:04;6.53;;;4.00;;
16775;SDS011;8505;49.456;8.164;2023-06-19T05:27:32;6.85;;;4.10;;
16775;SDS011;8505;49.456;8.164;2023-06-19T05:30:00;5.40;;;3.95;;
16775;SDS011;8505;49.456;8.164;2023-06-19T05:32:28;6.32;;;3.92;;
16775;SDS011;8505;49.456;8.164;2023-06-19T05:34:56;7.18;;;4.10;;
16775;SDS011;8505;49.456;8.164;2023-06-19T05:37:24;5.70;;;3.88;;
16775;SDS011;8505;49.456;8.164;2023-06-19T05:39:54;7.10;;;4.00;;
16775;SDS011;8505;49.456;8.164;2023-06-19T05:42:23;5.18;;;3.90;;
16775;SDS011;8505;49.456;8.164;2023-06-19T05:44:51;6.87;;;4.10;;
16775;SDS011;8505;49.456;8.164;2023-06-19T05:47:18;5.70;;;4.30;;
16775;SDS011;8505;49.456;8.164;2023-06-19T05:49:47;5.30;;;4.40;;
16775;SDS011;8505;49.456;8.164;2023-06-19T05:52:15;5.60;;;4.13;;
16775;SDS011;8505;49.456;8.164;2023-06-19T05:54:42;6.80;;;4.35;;
16775;SDS011;8505;49.456;8.164;2023-06-19T05:57:11;5.57;;;4.32;;
16775;SDS011;8505;49.456;8.164;2023-06-19T05:59:41;6.07;;;4.30;;
16775;SDS011;8505;49.456;8.164;2023-06-19T06:02:09;6.35;;;4.20;;
16775;SDS011;8505;49.456;8.164;2023-06-19T06:04:36;6.50;;;4.43;;
16775;SDS011;8505;49.456;8.164;2023-06-19T06:07:04;7.07;;;4.40;;
16775;SDS011;8505;49.456;8.164;2023-06-19T06:09:32;7.35;;;4.03;;
16775;SDS011;8505;49.456;8.164;2023-06-19T06:12:00;5.47;;;4.43;;
16775;SDS011;8505;49.456;8.164;2023-06-19T06:14:30;6.32;;;4.60;;
16775;SDS011;8505;49.456;8.164;2023-06-19T06:16:57;5.95;;;4.80;;
16775;SDS011;8505;49.456;8.164;2023-06-19T06:19:25;6.45;;;4.72;;
16775;SDS011;8505;49.456;8.164;2023-06-19T06:21:54;5.95;;;4.43;;
16775;SDS011;8505;49.456;8.164;2023-06-19T06:24:21;6.30;;;4.47;;
16775;SDS011;8505;49.456;8.164;2023-06-19T06:26:49;6.63;;;4.68;;
16775;SDS011;8505;49.456;8.164;2023-06-19T06:29:17;7.53;;;4.30;;
16775;SDS011;8505;49.456;8.164;2023-06-19T06:31:47;5.43;;;4.50;;
16775;SDS011;8505;49.456;8.164;2023-06-19T06:34:15;4.97;;;4.28;;
16775;SDS011;8505;49.456;8.164;2023-06-19T06:36:43;8.30;;;4.50;;
16775;SDS011;8505;49.456;8.164;2023-06-19T06:39:30;5.35;;;4.13;;
16775;SDS011;8505;49.456;8.164;2023-06-19T06:41:58;5.65;;;4.10;;
16775;SDS011;8505;49.456;8.164;2023-06-19T06:44:26;5.38;;;3.95;;
16775;SDS011;8505;49.456;8.164;2023-06-19T06:46:55;5.28;;;4.20;;
16775;SDS011;8505;49.456;8.164;2023-06-19T06:49:23;6.07;;;4.57;;
16775;SDS011;8505;49.456;8.164;2023-06-19T06:51:51;4.88;;;4.20;;
16775;SDS011;8505;49.456;8.164;2023-06-19T06:54:22;6.07;;;4.00;;
16775;SDS011;8505;49.456;8.164;2023-06-19T06:56:50;6.15;;;4.38;;
16775;SDS011;8505;49.456;8.164;2023-06-19T06:59:22;6.40;;;4.20;;
16775;SDS011;8505;49.456;8.164;2023-06-19T07:01:50;5.73;;;4.13;;
16775;SDS011;8505;49.456;8.164;2023-06-19T07:04:20;5.95;;;4.10;;
16775;SDS011;8505;49.456;8.164;2023-06-19T07:06:47;6.05;;;4.35;;
16775;SDS011;8505;49.456;8.164;2023-06-19T07:09:15;6.03;;;4.32;;
16775;SDS011;8505;49.456;8.164;2023-06-19T07:11:43;5.35;;;4.20;;
16775;SDS011;8505;49.456;8.164;2023-06-19T07:14:11;6.38;;;4.38;;
16775;SDS011;8505;49.456;8.164;2023-06-19T07:16:39;5.10;;;4.20;;
16775;SDS011;8505;49.456;8.164;2023-06-19T07:19:07;6.35;;;4.15;;
16775;SDS011;8505;49.456;8.164;2023-06-19T07:21:36;5.80;;;4.40;;
16775;SDS011;8505;49.456;8.164;2023-06-19T07:24:04;5.18;;;4.25;;
16775;SDS011;8505;49.456;8.164;2023-06-19T07:26:32;5.30;;;4.10;;
16775;SDS011;8505;49.456;8.164;2023-06-19T07:29:00;5.70;;;4.00;;
16775;SDS011;8505;49.456;8.164;2023-06-19T07:31:28;5.70;;;4.22;;
16775;SDS011;8505;49.456;8.164;2023-06-19T07:33:56;6.15;;;4.18;;
16775;SDS011;8505;49.456;8.164;2023-06-19T07:36:23;6.65;;;4.30;;
16775;SDS011;8505;49.456;8.164;2023-06-19T07:38:53;5.03;;;4.10;;
16775;SDS011;8505;49.456;8.164;2023-06-19T07:41:20;4.53;;;4.03;;
16775;SDS011;8505;49.456;8.164;2023-06-19T07:43:48;6.43;;;4.30;;
16775;SDS011;8505;49.456;8.164;2023-06-19T07:46:16;4.65;;;3.90;;
16775;SDS011;8505;49.456;8.164;2023-06-19T07:48:44;5.70;;;4.13;;
16775;SDS011;8505;49.456;8.164;2023-06-19T07:51:11;5.15;;;4.03;;
16775;SDS011;8505;49.456;8.164;2023-06-19T07:53:39;5.90;;;4.00;;
16775;SDS011;8505;49.456;8.164;2023-06-19T07:56:11;6.10;;;4.20;;
16775;SDS011;8505;49.456;8.164;2023-06-19T07:58:38;5.03;;;4.10;;
16775;SDS011;8505;49.456;8.164;2023-06-19T08:01:06;4.88;;;4.00;;
16775;SDS011;8505;49.456;8.164;2023-06-19T08:03:34;6.68;;;3.80;;
16775;SDS011;8505;49.456;8.164;2023-06-19T08:06:02;5.57;;;3.97;;
16775;SDS011;8505;49.456;8.164;2023-06-19T08:08:30;6.67;;;3.90;;
16775;SDS011;8505;49.456;8.164;2023-06-19T08:10:57;4.63;;;4.00;;
16775;SDS011;8505;49.456;8.164;2023-06-19T08:13:27;4.63;;;4.07;;
16775;SDS011;8505;49.456;8.164;2023-06-19T08:15:54;5.07;;;3.90;;
16775;SDS011;8505;49.456;8.164;2023-06-19T08:18:22;6.35;;;4.10;;
16775;SDS011;8505;49.456;8.164;2023-06-19T08:20:50;5.38;;;3.97;;
16775;SDS011;8505;49.456;8.164;2023-06-19T08:23:18;5.05;;;4.22;;
16775;SDS011;8505;49.456;8.164;2023-06-19T08:25:46;4.75;;;3.92;;
16775;SDS011;8505;49.456;8.164;2023-06-19T08:28:14;5.22;;;4.28;;
16775;SDS011;8505;49.456;8.164;2023-06-19T08:30:43;6.03;;;3.90;;
16775;SDS011;8505;49.456;8.164;2023-06-19T08:33:12;5.03;;;4.03;;
16775;SDS011;8505;49.456;8.164;2023-06-19T08:35:40;5.72;;;4.05;;
16775;SDS011;8505;49.456;8.164;2023-06-19T08:38:08;5.97;;;4.15;;
16775;SDS011;8505;49.456;8.164;2023-06-19T08:40:35;5.15;;;4.40;;
16775;SDS011;8505;49.456;8.164;2023-06-19T08:43:03;4.40;;;3.83;;
16775;SDS011;8505;49.456;8.164;2023-06-19T08:45:31;6.47;;;4.35;;
16775;SDS011;8505;49.456;8.164;2023-06-19T08:48:00;4.57;;;4.00;;
16775;SDS011;8505;49.456;8.164;2023-06-19T08:50:30;5.50;;;3.90;;
16775;SDS011;8505;49.456;8.164;2023-06-19T08:52:57;5.05;;;3.75;;
16775;SDS011;8505;49.456;8.164;2023-06-19T08:55:25;6.13;;;3.75;;
16775;SDS011;8505;49.456;8.164;2023-06-19T08:57:53;5.55;;;4.03;;
16775;SDS011;8505;49.456;8.164;2023-06-19T09:00:24;5.03;;;3.80;;
16775;SDS011;8505;49.456;8.164;2023-06-19T09:02:59;6.00;;;4.00;;
16775;SDS011;8505;49.456;8.164;2023-06-19T09:05:40;5.95;;;4.00;;
16775;SDS011;8505;49.456;8.164;2023-06-19T09:08:13;4.97;;;3.97;;
16775;SDS011;8505;49.456;8.164;2023-06-19T09:10:42;4.28;;;3.75;;
16775;SDS011;8505;49.456;8.164;2023-06-19T09:13:10;4.90;;;3.75;;
16775;SDS011;8505;49.456;8.164;2023-06-19T09:15:38;4.32;;;3.70;;
16775;SDS011;8505;49.456;8.164;2023-06-19T09:18:07;5.28;;;3.83;;
16775;SDS011;8505;49.456;8.164;2023-06-19T09:20:37;6.03;;;3.90;;
16775;SDS011;8505;49.456;8.164;2023-06-19T09:23:08;4.85;;;3.60;;
16775;SDS011;8505;49.456;8.164;2023-06-19T09:25:43;7.35;;;3.80;;
16775;SDS011;8505;49.456;8.164;2023-06-19T09:28:16;5.77;;;3.70;;
16775;SDS011;8505;49.456;8.164;2023-06-19T09:30:52;4.88;;;3.40;;
16775;SDS011;8505;49.456;8.164;2023-06-19T09:33:24;4.55;;;3.65;;
16775;SDS011;8505;49.456;8.164;2023-06-19T09:35:54;6.20;;;3.80;;
16775;SDS011;8505;49.456;8.164;2023-06-19T09:38:24;5.45;;;3.58;;
16775;SDS011;8505;49.456;8.164;2023-06-19T09:40:53;3.88;;;3.22;;
16775;SDS011;8505;49.456;8.164;2023-06-19T09:43:23;4.47;;;3.60;;
16775;SDS011;8505;49.456;8.164;2023-06-19T09:45:55;4.53;;;3.40;;
16775;SDS011;8505;49.456;8.164;2023-06-19T09:48:27;4.10;;;3.30;;
16775;SDS011;8505;49.456;8.164;2023-06-19T09:50:59;3.95;;;3.25;;
16775;SDS011;8505;49.456;8.164;2023-06-19T09:53:30;5.80;;;3.50;;
16775;SDS011;8505;49.456;8.164;2023-06-19T09:55:58;5.00;;;3.60;;
16775;SDS011;8505;49.456;8.164;2023-06-19T09:58:26;4.60;;;3.50;;
16775;SDS011;8505;49.456;8.164;2023-06-19T10:00:55;4.65;;;3.40;;
16775;SDS011;8505;49.456;8.164;2023-06-19T10:03:30;5.50;;;3.50;;
16775;SDS011;8505;49.456;8.164;2023-06-19T10:05:59;3.55;;;3.13;;
16775;SDS011;8505;49.456;8.164;2023-06-19T10:08:29;4.28;;;3.30;;
16775;SDS011;8505;49.456;8.164;2023-06-19T10:10:58;4.00;;;3.22;;
16775;SDS011;8505;49.456;8.164;2023-06-19T10:13:32;5.72;;;3.20;;
16775;SDS011;8505;49.456;8.164;2023-06-19T10:16:01;4.28;;;3.10;;
16775;SDS011;8505;49.456;8.164;2023-06-19T10:18:31;3.50;;;3.10;;
16775;SDS011;8505;49.456;8.164;2023-06-19T10:20:59;5.22;;;3.42;;
16775;SDS011;8505;49.456;8.164;2023-06-19T10:23:28;3.97;;;3.30;;
16775;SDS011;8505;49.456;8.164;2023-06-19T10:25:56;5.35;;;3.10;;
16775;SDS011;8505;49.456;8.164;2023-06-19T10:28:29;3.92;;;2.90;;
16775;SDS011;8505;49.456;8.164;2023-06-19T10:30:58;6.75;;;3.40;;
16775;SDS011;8505;49.456;8.164;2023-06-19T10:33:29;5.75;;;3.10;;
16775;SDS011;8505;49.456;8.164;2023-06-19T10:36:00;4.30;;;2.80;;
16775;SDS011;8505;49.456;8.164;2023-06-19T10:38:28;4.15;;;3.10;;
16775;SDS011;8505;49.456;8.164;2023-06-19T10:40:56;3.45;;;3.00;;
16775;SDS011;8505;49.456;8.164;2023-06-19T10:43:24;4.03;;;3.00;;
16775;SDS011;8505;49.456;8.164;2023-06-19T10:45:57;4.05;;;3.17;;
16775;SDS011;8505;49.456;8.164;2023-06-19T10:48:25;3.77;;;3.10;;
16775;SDS011;8505;49.456;8.164;2023-06-19T10:50:55;4.90;;;2.90;;
16775;SDS011;8505;49.456;8.164;2023-06-19T10:53:24;3.10;;;2.80;;
16775;SDS011;8505;49.456;8.164;2023-06-19T10:55:56;4.57;;;2.78;;
16775;SDS011;8505;49.456;8.164;2023-06-19T10:58:25;3.63;;;3.03;;
16775;SDS011;8505;49.456;8.164;2023-06-19T11:00:53;3.75;;;2.90;;
16775;SDS011;8505;49.456;8.164;2023-06-19T11:03:21;3.30;;;2.70;;
16775;SDS011;8505;49.456;8.164;2023-06-19T11:05:49;3.72;;;2.60;;
16775;SDS011;8505;49.456;8.164;2023-06-19T11:08:19;3.53;;;2.42;;
16775;SDS011;8505;49.456;8.164;2023-06-19T11:10:47;3.58;;;2.65;;
16775;SDS011;8505;49.456;8.164;2023-06-19T11:13:16;3.75;;;2.42;;
16775;SDS011;8505;49.456;8.164;2023-06-19T11:15:45;3.35;;;2.50;;
16775;SDS011;8505;49.456;8.164;2023-06-19T11:18:16;3.27;;;2.80;;
16775;SDS011;8505;49.456;8.164;2023-06-19T11:20:45;2.70;;;2.50;;
16775;SDS011;8505;49.456;8.164;2023-06-19T11:23:14;2.78;;;2.50;;
16775;SDS011;8505;49.456;8.164;2023-06-19T11:25:44;2.90;;;2.30;;
16775;SDS011;8505;49.456;8.164;2023-06-19T11:28:12;3.47;;;2.55;;
16775;SDS011;8505;49.456;8.164;2023-06-19T11:30:41;3.75;;;2.70;;
16775;SDS011;8505;49.456;8.164;2023-06-19T11:33:16;3.53;;;2.60;;
16775;SDS011;8505;49.456;8.164;2023-06-19T11:35:48;3.00;;;2.70;;
16775;SDS011;8505;49.456;8.164;2023-06-19T11:38:17;3.80;;;2.90;;
16775;SDS011;8505;49.456;8.164;2023-06-19T11:40:47;3.80;;;2.83;;
16775;SDS011;8505;49.456;8.164;2023-06-19T11:43:25;3.55;;;2.72;;
16775;SDS011;8505;49.456;8.164;2023-06-19T11:45:55;3.85;;;2.92;;
16775;SDS011;8505;49.456;8.164;2023-06-19T11:48:29;3.80;;;2.83;;
16775;SDS011;8505;49.456;8.164;2023-06-19T11:50:57;4.80;;;3.00;;
16775;SDS011;8505;49.456;8.164;2023-06-19T11:53:26;4.00;;;3.05;;
16775;SDS011;8505;49.456;8.164;2023-06-19T11:55:55;3.53;;;3.17;;
16775;SDS011;8505;49.456;8.164;2023-06-19T11:58:22;4.40;;;3.05;;
16775;SDS011;8505;49.456;8.164;2023-06-19T12:00:50;4.13;;;3.20;;
16775;SDS011;8505;49.456;8.164;2023-06-19T12:03:19;4.28;;;3.30;;
16775;SDS011;8505;49.456;8.164;2023-06-19T12:05:47;4.00;;;3.30;;
16775;SDS011;8505;49.456;8.164;2023-06-19T12:08:15;5.00;;;3.45;;
16775;SDS011;8505;49.456;8.164;2023-06-19T12:10:43;3.97;;;3.33;;
16775;SDS011;8505;49.456;8.164;2023-06-19T12:13:12;4.00;;;3.00;;
16775;SDS011;8505;49.456;8.164;2023-06-19T12:15:40;3.83;;;3.35;;
16775;SDS011;8505;49.456;8.164;2023-06-19T12:18:07;4.38;;;3.38;;
16775;SDS011;8505;49.456;8.164;2023-06-19T12:20:38;3.40;;;3.10;;
16775;SDS011;8505;49.456;8.164;2023-06-19T12:23:06;4.07;;;3.55;;
16775;SDS011;8505;49.456;8.164;2023-06-19T12:25:34;4.28;;;3.72;;
16775;SDS011;8505;49.456;8.164;2023-06-19T12:28:01;3.50;;;3.20;;
16775;SDS011;8505;49.456;8.164;2023-06-19T12:30:35;3.97;;;3.50;;
16775;SDS011;8505;49.456;8.164;2023-06-19T12:33:03;4.70;;;3.47;;
16775;SDS011;8505;49.456;8.164;2023-06-19T12:35:31;4.88;;;3.30;;
16775;SDS011;8505;49.456;8.164;2023-06-19T12:37:59;4.85;;;3.60;;
16775;SDS011;8505;49.456;8.164;2023-06-19T12:40:27;4.10;;;3.70;;
16775;SDS011;8505;49.456;8.164;2023-06-19T12:42:55;5.80;;;3.95;;
16775;SDS011;8505;49.456;8.164;2023-06-19T12:45:22;5.55;;;3.70;;
16775;SDS011;8505;49.456;8.164;2023-06-19T12:47:51;3.83;;;3.40;;
16775;SDS011;8505;49.456;8.164;2023-06-19T12:50:21;3.95;;;3.50;;
16775;SDS011;8505;49.456;8.164;2023-06-19T12:52:49;3.97;;;3.57;;
16775;SDS011;8505;49.456;8.164;2023-06-19T12:55:18;3.90;;;3.50;;
16775;SDS011;8505;49.456;8.164;2023-06-19T12:57:46;4.18;;;3.58;;
16775;SDS011;8505;49.456;8.164;2023-06-19T13:00:14;4.30;;;3.90;;
16775;SDS011;8505;49.456;8.164;2023-06-19T13:02:42;4.57;;;3.90;;
16775;SDS011;8505;49.456;8.164;2023-06-19T13:05:13;4.38;;;3.75;;
16775;SDS011;8505;49.456;8.164;2023-06-19T13:07:42;6.15;;;3.88;;
16775;SDS011;8505;49.456;8.164;2023-06-19T13:10:10;4.05;;;3.65;;
16775;SDS011;8505;49.456;8.164;2023-06-19T13:12:37;4.40;;;4.00;;
16775;SDS011;8505;49.456;8.164;2023-06-19T13:15:05;4.55;;;3.75;;
16775;SDS011;8505;49.456;8.164;2023-06-19T13:17:34;4.03;;;3.63;;
16775;SDS011;8505;49.456;8.164;2023-06-19T13:20:02;4.57;;;3.55;;
16775;SDS011;8505;49.456;8.164;2023-06-19T13:22:32;4.20;;;3.80;;
16775;SDS011;8505;49.456;8.164;2023-06-19T13:25:00;4.10;;;3.70;;
16775;SDS011;8505;49.456;8.164;2023-06-19T13:27:28;5.77;;;3.63;;
16775;SDS011;8505;49.456;8.164;2023-06-19T13:29:56;5.28;;;3.72;;
16775;SDS011;8505;49.456;8.164;2023-06-19T13:32:24;4.38;;;3.90;;
16775;SDS011;8505;49.456;8.164;2023-06-19T13:34:52;6.13;;;3.80;;
16775;SDS011;8505;49.456;8.164;2023-06-19T13:37:20;4.55;;;4.10;;
16775;SDS011;8505;49.456;8.164;2023-06-19T13:39:49;4.68;;;3.90;;
16775;SDS011;8505;49.456;8.164;2023-06-19T13:42:17;5.30;;;4.20;;
16775;SDS011;8505;49.456;8.164;2023-06-19T13:44:45;5.05;;;3.90;;
16775;SDS011;8505;49.456;8.164;2023-06-19T13:47:16;4.68;;;3.83;;
16775;SDS011;8505;49.456;8.164;2023-06-19T13:49:44;4.43;;;3.92;;
16775;SDS011;8505;49.456;8.164;2023-06-19T13:52:12;4.63;;;3.88;;
16775;SDS011;8505;49.456;8.164;2023-06-19T13:54:39;4.80;;;4.07;;
16775;SDS011;8505;49.456;8.164;2023-06-19T13:57:09;4.15;;;3.60;;
16775;SDS011;8505;49.456;8.164;2023-06-19T13:59:37;4.55;;;3.80;;
16775;SDS011;8505;49.456;8.164;2023-06-19T14:02:05;4.95;;;3.58;;
16775;SDS011;8505;49.456;8.164;2023-06-19T14:04:33;4.40;;;3.50;;
16775;SDS011;8505;49.456;8.164;2023-06-19T14:07:01;4.72;;;3.80;;
16775;SDS011;8505;49.456;8.164;2023-06-19T14:09:29;6.30;;;5.47;;
16775;SDS011;8505;49.456;8.164;2023-06-19T14:11:56;4.63;;;3.78;;
16775;SDS011;8505;49.456;8.164;2023-06-19T14:14:26;5.35;;;4.00;;
16775;SDS011;8505;49.456;8.164;2023-06-19T14:16:54;4.57;;;4.10;;
16775;SDS011;8505;49.456;8.164;2023-06-19T14:19:24;5.43;;;4.13;;
16775;SDS011;8505;49.456;8.164;2023-06-19T14:21:52;4.38;;;3.97;;
16775;SDS011;8505;49.456;8.164;2023-06-19T14:24:20;5.35;;;3.90;;
16775;SDS011;8505;49.456;8.164;2023-06-19T14:26:49;4.28;;;3.88;;
16775;SDS011;8505;49.456;8.164;2023-06-19T14:29:17;4.32;;;3.92;;
16775;SDS011;8505;49.456;8.164;2023-06-19T14:31:48;6.13;;;4.07;;
16775;SDS011;8505;49.456;8.164;2023-06-19T14:34:18;6.03;;;3.92;;
16775;SDS011;8505;49.456;8.164;2023-06-19T14:36:46;4.13;;;3.72;;
16775;SDS011;8505;49.456;8.164;2023-06-19T14:39:14;4.60;;;4.00;;
16775;SDS011;8505;49.456;8.164;2023-06-19T14:41:42;6.10;;;3.80;;
16775;SDS011;8505;49.456;8.164;2023-06-19T14:44:10;4.87;;;3.87;;
16775;SDS011;8505;49.456;8.164;2023-06-19T14:46:38;5.45;;;4.10;;
16775;SDS011;8505;49.456;8.164;2023-06-19T14:49:09;4.65;;;4.07;;
16775;SDS011;8505;49.456;8.164;2023-06-19T14:51:39;4.23;;;3.83;;
16775;SDS011;8505;49.456;8.164;2023-06-19T14:54:07;6.63;;;4.13;;
16775;SDS011;8505;49.456;8.164;2023-06-19T14:56:34;7.05;;;4.03;;
16775;SDS011;8505;49.456;8.164;2023-06-19T14:59:02;4.93;;;4.10;;
16775;SDS011;8505;49.456;8.164;2023-06-19T15:01:30;4.75;;;4.00;;
16775;SDS011;8505;49.456;8.164;2023-06-19T15:03:58;5.80;;;4.60;;
16775;SDS011;8505;49.456;8.164;2023-06-19T15:06:28;4.32;;;3.92;;
16775;SDS011;8505;49.456;8.164;2023-06-19T15:08:55;4.70;;;4.20;;